sensor_id;sensor_type;location;lat;lon;timestamp;P1;durP1;ratioP1;P2;durP2;ratioP2
13463;SDS011;6804;48.774;9.174;2024-03-07T00:01:53;22.33;;;16.37;;
13463;SDS011;6804;48.774;9.174;2024-03-07T00:04:20;27.17;;;18.50;;
13463;SDS011;6804;48.774;9.174;2024-03-07T00:06:48;30.33;;;20.37;;
13463;SDS011;6804;48.774;9.174;2024-03-07T00:09:16;33.97;;;21.13;;
13463;SDS011;6804;48.774;9.174;2024-03-07T00:11:50;22.03;;;16.40;;
13463;SDS011;6804;48.774;9.174;2024-03-07T00:14:19;24.97;;;18.43;;
13463;SDS011;6804;48.774;9.174;2024-03-07T00:16:50;29.70;;;19.27;;
13463;SDS011;6804;48.774;9.174;2024-03-07T00:19:18;34.10;;;21.97;;
13463;SDS011;6804;48.774;9.174;2024-03-07T00:21:53;33.77;;;22.63;;
13463;SDS011;6804;48.774;9.174;2024-03-07T00:24:21;28.83;;;21.10;;
13463;SDS011;6804;48.774;9.174;2024-03-07T00:26:52;31.47;;;20.30;;
13463;SDS011;6804;48.774;9.174;2024-03-07T00:29:21;29.33;;;20.10;;
13463;SDS011;6804;48.774;9.174;2024-03-07T00:31:52;26.17;;;18.90;;
13463;SDS011;6804;48.774;9.174;2024-03-07T00:37:15;25.03;;;18.30;;
13463;SDS011;6804;48.774;9.174;2024-03-07T00:39:43;22.80;;;17.27;;
13463;SDS011;6804;48.774;9.174;2024-03-07T00:42:14;24.00;;;16.83;;
13463;SDS011;6804;48.774;9.174;2024-03-07T00:44:44;25.87;;;18.27;;
13463;SDS011;6804;48.774;9.174;2024-03-07T00:50:24;26.10;;;18.13;;
13463;SDS011;6804;48.774;9.174;2024-03-07T00:55:41;26.00;;;18.60;;
13463;SDS011;6804;48.774;9.174;2024-03-07T00:58:10;25.50;;;18.10;;
13463;SDS011;6804;48.774;9.174;2024-03-07T01:00:38;25.03;;;18.00;;
13463;SDS011;6804;48.774;9.174;2024-03-07T01:03:16;23.00;;;17.60;;
13463;SDS011;6804;48.774;9.174;2024-03-07T01:05:46;21.83;;;17.20;;
13463;SDS011;6804;48.774;9.174;2024-03-07T01:08:14;24.47;;;17.60;;
13463;SDS011;6804;48.774;9.174;2024-03-07T01:10:42;23.43;;;18.33;;
13463;SDS011;6804;48.774;9.174;2024-03-07T01:13:09;24.50;;;18.60;;
13463;SDS011;6804;48.774;9.174;2024-03-07T01:15:44;24.30;;;18.37;;
13463;SDS011;6804;48.774;9.174;2024-03-07T01:18:13;25.40;;;19.80;;
13463;SDS011;6804;48.774;9.174;2024-03-07T01:20:40;25.27;;;19.57;;
13463;SDS011;6804;48.774;9.174;2024-03-07T01:23:12;26.47;;;19.30;;
13463;SDS011;6804;48.774;9.174;2024-03-07T01:28:30;26.33;;;18.83;;
13463;SDS011;6804;48.774;9.174;2024-03-07T01:30:58;26.80;;;19.33;;
13463;SDS011;6804;48.774;9.174;2024-03-07T01:33:26;25.07;;;18.87;;
13463;SDS011;6804;48.774;9.174;2024-03-07T01:39:02;25.07;;;19.37;;
13463;SDS011;6804;48.774;9.174;2024-03-07T01:41:31;24.70;;;19.27;;
13463;SDS011;6804;48.774;9.174;2024-03-07T01:44:03;25.67;;;19.17;;
13463;SDS011;6804;48.774;9.174;2024-03-07T01:46:32;24.63;;;19.57;;
13463;SDS011;6804;48.774;9.174;2024-03-07T01:49:03;25.47;;;19.83;;
13463;SDS011;6804;48.774;9.174;2024-03-07T01:51:32;25.97;;;18.87;;
13463;SDS011;6804;48.774;9.174;2024-03-07T01:54:04;24.87;;;19.60;;
13463;SDS011;6804;48.774;9.174;2024-03-07T01:56:33;24.73;;;19.13;;
13463;SDS011;6804;48.774;9.174;2024-03-07T01:59:02;26.87;;;20.47;;
13463;SDS011;6804;48.774;9.174;2024-03-07T02:01:33;25.43;;;19.23;;
13463;SDS011;6804;48.774;9.174;2024-03-07T02:04:02;24.57;;;19.27;;
13463;SDS011;6804;48.774;9.174;2024-03-07T02:06:33;23.73;;;19.43;;
13463;SDS011;6804;48.774;9.174;2024-03-07T02:09:05;26.03;;;19.97;;
13463;SDS011;6804;48.774;9.174;2024-03-07T02:11:34;27.87;;;20.50;;
13463;SDS011;6804;48.774;9.174;2024-03-07T02:16:59;24.77;;;19.57;;
13463;SDS011;6804;48.774;9.174;2024-03-07T02:19:26;28.97;;;20.87;;
13463;SDS011;6804;48.774;9.174;2024-03-07T02:21:55;30.07;;;20.90;;
13463;SDS011;6804;48.774;9.174;2024-03-07T02:24:26;29.73;;;20.93;;
13463;SDS011;6804;48.774;9.174;2024-03-07T02:26:53;32.93;;;24.60;;
13463;SDS011;6804;48.774;9.174;2024-03-07T02:29:27;32.93;;;24.40;;
13463;SDS011;6804;48.774;9.174;2024-03-07T02:31:56;31.87;;;22.77;;
13463;SDS011;6804;48.774;9.174;2024-03-07T02:34:26;31.33;;;22.47;;
13463;SDS011;6804;48.774;9.174;2024-03-07T02:36:55;31.20;;;22.97;;
13463;SDS011;6804;48.774;9.174;2024-03-07T02:39:22;34.53;;;25.37;;
13463;SDS011;6804;48.774;9.174;2024-03-07T02:41:52;34.47;;;23.07;;
13463;SDS011;6804;48.774;9.174;2024-03-07T02:44:20;33.70;;;22.80;;
13463;SDS011;6804;48.774;9.174;2024-03-07T02:46:48;31.97;;;22.83;;
13463;SDS011;6804;48.774;9.174;2024-03-07T02:49:16;29.63;;;21.70;;
13463;SDS011;6804;48.774;9.174;2024-03-07T02:51:44;28.93;;;21.97;;
13463;SDS011;6804;48.774;9.174;2024-03-07T02:54:15;29.03;;;22.00;;
13463;SDS011;6804;48.774;9.174;2024-03-07T02:56:46;31.53;;;23.70;;
13463;SDS011;6804;48.774;9.174;2024-03-07T02:59:18;31.97;;;23.30;;
13463;SDS011;6804;48.774;9.174;2024-03-07T03:01:46;29.93;;;22.33;;
13463;SDS011;6804;48.774;9.174;2024-03-07T03:04:16;33.93;;;23.50;;
13463;SDS011;6804;48.774;9.174;2024-03-07T03:06:45;40.20;;;25.67;;
13463;SDS011;6804;48.774;9.174;2024-03-07T03:09:14;32.53;;;24.23;;
13463;SDS011;6804;48.774;9.174;2024-03-07T03:11:43;40.63;;;26.90;;
13463;SDS011;6804;48.774;9.174;2024-03-07T03:14:15;39.47;;;26.87;;
13463;SDS011;6804;48.774;9.174;2024-03-07T03:16:45;42.10;;;28.63;;
13463;SDS011;6804;48.774;9.174;2024-03-07T03:21:59;31.97;;;24.40;;
13463;SDS011;6804;48.774;9.174;2024-03-07T03:24:30;36.40;;;25.67;;
13463;SDS011;6804;48.774;9.174;2024-03-07T03:26:59;34.47;;;25.40;;
13463;SDS011;6804;48.774;9.174;2024-03-07T03:29:29;39.53;;;27.70;;
13463;SDS011;6804;48.774;9.174;2024-03-07T03:31:59;42.63;;;27.13;;
13463;SDS011;6804;48.774;9.174;2024-03-07T03:34:28;31.03;;;24.70;;
13463;SDS011;6804;48.774;9.174;2024-03-07T03:36:55;31.83;;;23.63;;
13463;SDS011;6804;48.774;9.174;2024-03-07T03:39:23;31.80;;;23.93;;
13463;SDS011;6804;48.774;9.174;2024-03-07T03:41:58;31.40;;;23.53;;
13463;SDS011;6804;48.774;9.174;2024-03-07T03:44:28;31.17;;;23.27;;
13463;SDS011;6804;48.774;9.174;2024-03-07T03:46:56;37.23;;;26.43;;
13463;SDS011;6804;48.774;9.174;2024-03-07T03:49:26;35.20;;;25.37;;
13463;SDS011;6804;48.774;9.174;2024-03-07T03:51:54;44.60;;;29.03;;
13463;SDS011;6804;48.774;9.174;2024-03-07T03:54:27;44.07;;;28.13;;
13463;SDS011;6804;48.774;9.174;2024-03-07T03:56:56;47.90;;;29.23;;
13463;SDS011;6804;48.774;9.174;2024-03-07T03:59:24;36.43;;;25.93;;
13463;SDS011;6804;48.774;9.174;2024-03-07T04:01:58;35.57;;;25.00;;
13463;SDS011;6804;48.774;9.174;2024-03-07T04:04:26;34.13;;;24.20;;
13463;SDS011;6804;48.774;9.174;2024-03-07T04:06:53;31.57;;;23.73;;
13463;SDS011;6804;48.774;9.174;2024-03-07T04:09:23;34.53;;;24.67;;
13463;SDS011;6804;48.774;9.174;2024-03-07T04:11:54;30.77;;;23.80;;
13463;SDS011;6804;48.774;9.174;2024-03-07T04:14:25;34.40;;;24.80;;
13463;SDS011;6804;48.774;9.174;2024-03-07T04:16:56;31.83;;;23.70;;
13463;SDS011;6804;48.774;9.174;2024-03-07T04:19:23;29.53;;;23.13;;
13463;SDS011;6804;48.774;9.174;2024-03-07T04:21:50;34.90;;;23.57;;
13463;SDS011;6804;48.774;9.174;2024-03-07T04:24:19;33.13;;;24.07;;
13463;SDS011;6804;48.774;9.174;2024-03-07T04:26:46;33.90;;;24.00;;
13463;SDS011;6804;48.774;9.174;2024-03-07T04:29:15;29.80;;;23.50;;
13463;SDS011;6804;48.774;9.174;2024-03-07T04:31:43;31.73;;;24.07;;
13463;SDS011;6804;48.774;9.174;2024-03-07T04:34:11;32.33;;;23.40;;
13463;SDS011;6804;48.774;9.174;2024-03-07T04:36:39;30.90;;;22.70;;
13463;SDS011;6804;48.774;9.174;2024-03-07T04:39:06;33.10;;;24.63;;
13463;SDS011;6804;48.774;9.174;2024-03-07T04:41:39;29.43;;;21.57;;
13463;SDS011;6804;48.774;9.174;2024-03-07T04:44:07;31.77;;;22.77;;
13463;SDS011;6804;48.774;9.174;2024-03-07T04:46:38;35.33;;;23.20;;
13463;SDS011;6804;48.774;9.174;2024-03-07T04:49:09;31.93;;;23.17;;
13463;SDS011;6804;48.774;9.174;2024-03-07T04:51:36;30.77;;;23.07;;
13463;SDS011;6804;48.774;9.174;2024-03-07T04:54:04;32.50;;;23.43;;
13463;SDS011;6804;48.774;9.174;2024-03-07T04:56:34;31.17;;;21.83;;
13463;SDS011;6804;48.774;9.174;2024-03-07T04:59:04;33.10;;;21.80;;
13463;SDS011;6804;48.774;9.174;2024-03-07T05:01:38;32.23;;;23.67;;
13463;SDS011;6804;48.774;9.174;2024-03-07T05:04:09;31.97;;;22.90;;
13463;SDS011;6804;48.774;9.174;2024-03-07T05:06:40;29.23;;;22.33;;
13463;SDS011;6804;48.774;9.174;2024-03-07T05:09:08;29.60;;;22.27;;
13463;SDS011;6804;48.774;9.174;2024-03-07T05:11:48;29.97;;;22.00;;
13463;SDS011;6804;48.774;9.174;2024-03-07T05:14:18;33.07;;;23.87;;
13463;SDS011;6804;48.774;9.174;2024-03-07T05:16:51;34.10;;;24.60;;
13463;SDS011;6804;48.774;9.174;2024-03-07T05:19:30;33.53;;;24.23;;
13463;SDS011;6804;48.774;9.174;2024-03-07T05:21:58;35.93;;;23.80;;
13463;SDS011;6804;48.774;9.174;2024-03-07T05:24:25;32.23;;;22.60;;
13463;SDS011;6804;48.774;9.174;2024-03-07T05:26:53;33.63;;;25.30;;
13463;SDS011;6804;48.774;9.174;2024-03-07T05:29:21;34.47;;;23.87;;
13463;SDS011;6804;48.774;9.174;2024-03-07T05:31:49;31.20;;;23.60;;
13463;SDS011;6804;48.774;9.174;2024-03-07T05:34:20;34.90;;;26.07;;
13463;SDS011;6804;48.774;9.174;2024-03-07T05:36:48;34.37;;;24.80;;
13463;SDS011;6804;48.774;9.174;2024-03-07T05:39:16;36.17;;;26.03;;
13463;SDS011;6804;48.774;9.174;2024-03-07T05:41:46;33.07;;;24.13;;
13463;SDS011;6804;48.774;9.174;2024-03-07T05:44:16;34.30;;;25.57;;
13463;SDS011;6804;48.774;9.174;2024-03-07T05:46:47;34.37;;;23.03;;
13463;SDS011;6804;48.774;9.174;2024-03-07T05:49:20;34.37;;;23.63;;
13463;SDS011;6804;48.774;9.174;2024-03-07T05:51:50;37.00;;;26.70;;
13463;SDS011;6804;48.774;9.174;2024-03-07T05:54:21;34.03;;;23.53;;
13463;SDS011;6804;48.774;9.174;2024-03-07T05:56:51;36.20;;;23.87;;
13463;SDS011;6804;48.774;9.174;2024-03-07T05:59:21;32.83;;;24.77;;
13463;SDS011;6804;48.774;9.174;2024-03-07T06:01:49;30.50;;;22.53;;
13463;SDS011;6804;48.774;9.174;2024-03-07T06:04:23;31.90;;;21.93;;
13463;SDS011;6804;48.774;9.174;2024-03-07T06:06:52;32.00;;;22.63;;
13463;SDS011;6804;48.774;9.174;2024-03-07T06:09:20;30.90;;;22.30;;
13463;SDS011;6804;48.774;9.174;2024-03-07T06:11:52;28.60;;;20.80;;
13463;SDS011;6804;48.774;9.174;2024-03-07T06:14:19;29.20;;;21.33;;
13463;SDS011;6804;48.774;9.174;2024-03-07T06:16:50;31.70;;;23.50;;
13463;SDS011;6804;48.774;9.174;2024-03-07T06:19:19;29.60;;;22.20;;
13463;SDS011;6804;48.774;9.174;2024-03-07T06:21:52;29.63;;;21.40;;
13463;SDS011;6804;48.774;9.174;2024-03-07T06:24:22;32.37;;;22.07;;
13463;SDS011;6804;48.774;9.174;2024-03-07T06:26:51;31.63;;;23.30;;
13463;SDS011;6804;48.774;9.174;2024-03-07T06:29:29;31.37;;;22.97;;
13463;SDS011;6804;48.774;9.174;2024-03-07T06:31:57;32.47;;;22.50;;
13463;SDS011;6804;48.774;9.174;2024-03-07T06:34:31;32.30;;;22.43;;
13463;SDS011;6804;48.774;9.174;2024-03-07T06:37:06;28.87;;;22.03;;
13463;SDS011;6804;48.774;9.174;2024-03-07T06:39:35;34.80;;;23.13;;
13463;SDS011;6804;48.774;9.174;2024-03-07T06:42:02;30.07;;;21.00;;
13463;SDS011;6804;48.774;9.174;2024-03-07T06:44:32;28.37;;;21.80;;
13463;SDS011;6804;48.774;9.174;2024-03-07T06:47:00;27.47;;;19.70;;
13463;SDS011;6804;48.774;9.174;2024-03-07T06:49:27;31.80;;;21.77;;
13463;SDS011;6804;48.774;9.174;2024-03-07T06:51:57;28.33;;;21.30;;
13463;SDS011;6804;48.774;9.174;2024-03-07T06:54:32;29.57;;;22.23;;
13463;SDS011;6804;48.774;9.174;2024-03-07T06:57:00;32.10;;;22.07;;
13463;SDS011;6804;48.774;9.174;2024-03-07T06:59:31;31.10;;;20.80;;
13463;SDS011;6804;48.774;9.174;2024-03-07T07:01:58;26.97;;;20.60;;
13463;SDS011;6804;48.774;9.174;2024-03-07T07:04:27;27.53;;;20.37;;
13463;SDS011;6804;48.774;9.174;2024-03-07T07:07:06;28.13;;;19.70;;
13463;SDS011;6804;48.774;9.174;2024-03-07T07:09:37;27.40;;;19.87;;
13463;SDS011;6804;48.774;9.174;2024-03-07T07:12:09;28.77;;;20.70;;
13463;SDS011;6804;48.774;9.174;2024-03-07T07:14:46;26.70;;;19.73;;
13463;SDS011;6804;48.774;9.174;2024-03-07T07:20:01;27.43;;;20.80;;
13463;SDS011;6804;48.774;9.174;2024-03-07T07:25:27;30.77;;;21.17;;
13463;SDS011;6804;48.774;9.174;2024-03-07T07:27:54;28.93;;;19.83;;
13463;SDS011;6804;48.774;9.174;2024-03-07T07:30:22;26.57;;;19.97;;
13463;SDS011;6804;48.774;9.174;2024-03-07T07:32:52;26.80;;;19.33;;
13463;SDS011;6804;48.774;9.174;2024-03-07T07:35:20;24.90;;;19.47;;
13463;SDS011;6804;48.774;9.174;2024-03-07T07:37:55;24.57;;;20.13;;
13463;SDS011;6804;48.774;9.174;2024-03-07T07:40:23;25.40;;;20.67;;
13463;SDS011;6804;48.774;9.174;2024-03-07T07:42:57;29.63;;;21.60;;
13463;SDS011;6804;48.774;9.174;2024-03-07T07:45:27;25.17;;;20.07;;
13463;SDS011;6804;48.774;9.174;2024-03-07T07:47:54;27.93;;;20.60;;
13463;SDS011;6804;48.774;9.174;2024-03-07T07:50:22;25.70;;;19.07;;
13463;SDS011;6804;48.774;9.174;2024-03-07T07:52:50;26.27;;;19.50;;
13463;SDS011;6804;48.774;9.174;2024-03-07T07:55:28;30.73;;;20.20;;
13463;SDS011;6804;48.774;9.174;2024-03-07T07:57:58;28.00;;;18.70;;
13463;SDS011;6804;48.774;9.174;2024-03-07T08:00:29;26.77;;;19.63;;
13463;SDS011;6804;48.774;9.174;2024-03-07T08:03:05;26.07;;;19.53;;
13463;SDS011;6804;48.774;9.174;2024-03-07T08:05:35;23.80;;;18.67;;
13463;SDS011;6804;48.774;9.174;2024-03-07T08:08:05;25.87;;;18.73;;
13463;SDS011;6804;48.774;9.174;2024-03-07T08:10:38;25.60;;;18.30;;
13463;SDS011;6804;48.774;9.174;2024-03-07T08:13:06;24.93;;;19.80;;
13463;SDS011;6804;48.774;9.174;2024-03-07T08:15:36;27.03;;;18.90;;
13463;SDS011;6804;48.774;9.174;2024-03-07T08:18:04;25.87;;;18.77;;
13463;SDS011;6804;48.774;9.174;2024-03-07T08:20:36;27.57;;;20.07;;
13463;SDS011;6804;48.774;9.174;2024-03-07T08:23:04;22.03;;;17.23;;
13463;SDS011;6804;48.774;9.174;2024-03-07T08:25:33;22.77;;;17.17;;
13463;SDS011;6804;48.774;9.174;2024-03-07T08:28:06;23.07;;;16.80;;
13463;SDS011;6804;48.774;9.174;2024-03-07T08:30:34;21.67;;;15.60;;
13463;SDS011;6804;48.774;9.174;2024-03-07T08:33:09;18.30;;;15.67;;
13463;SDS011;6804;48.774;9.174;2024-03-07T08:35:39;22.60;;;16.77;;
13463;SDS011;6804;48.774;9.174;2024-03-07T08:38:08;22.90;;;16.87;;
13463;SDS011;6804;48.774;9.174;2024-03-07T08:40:38;24.13;;;17.43;;
13463;SDS011;6804;48.774;9.174;2024-03-07T08:43:06;20.67;;;16.00;;
13463;SDS011;6804;48.774;9.174;2024-03-07T08:45:35;20.97;;;16.90;;
13463;SDS011;6804;48.774;9.174;2024-03-07T08:51:10;22.23;;;16.53;;
13463;SDS011;6804;48.774;9.174;2024-03-07T08:53:41;20.90;;;15.50;;
13463;SDS011;6804;48.774;9.174;2024-03-07T08:56:15;20.17;;;16.23;;
13463;SDS011;6804;48.774;9.174;2024-03-07T08:58:43;21.40;;;16.10;;
13463;SDS011;6804;48.774;9.174;2024-03-07T09:01:14;21.37;;;16.83;;
13463;SDS011;6804;48.774;9.174;2024-03-07T09:03:43;21.70;;;15.67;;
13463;SDS011;6804;48.774;9.174;2024-03-07T09:08:58;22.27;;;16.43;;
13463;SDS011;6804;48.774;9.174;2024-03-07T09:14:17;21.03;;;16.13;;
13463;SDS011;6804;48.774;9.174;2024-03-07T09:16:46;23.77;;;17.23;;
13463;SDS011;6804;48.774;9.174;2024-03-07T09:19:16;22.43;;;16.77;;
13463;SDS011;6804;48.774;9.174;2024-03-07T09:24:56;22.07;;;16.33;;
13463;SDS011;6804;48.774;9.174;2024-03-07T09:27:27;22.80;;;16.60;;
13463;SDS011;6804;48.774;9.174;2024-03-07T09:29:55;20.97;;;17.00;;
13463;SDS011;6804;48.774;9.174;2024-03-07T09:32:29;22.10;;;17.50;;
13463;SDS011;6804;48.774;9.174;2024-03-07T09:34:58;22.07;;;16.93;;
13463;SDS011;6804;48.774;9.174;2024-03-07T09:37:26;24.20;;;17.53;;
13463;SDS011;6804;48.774;9.174;2024-03-07T09:40:00;26.40;;;17.57;;
13463;SDS011;6804;48.774;9.174;2024-03-07T09:42:30;22.13;;;17.93;;
13463;SDS011;6804;48.774;9.174;2024-03-07T09:45:03;23.37;;;17.27;;
13463;SDS011;6804;48.774;9.174;2024-03-07T09:50:25;23.03;;;18.30;;
13463;SDS011;6804;48.774;9.174;2024-03-07T09:52:56;23.17;;;17.97;;
13463;SDS011;6804;48.774;9.174;2024-03-07T09:55:26;23.77;;;17.97;;
13463;SDS011;6804;48.774;9.174;2024-03-07T09:57:57;24.23;;;18.53;;
13463;SDS011;6804;48.774;9.174;2024-03-07T10:00:27;27.20;;;18.37;;
13463;SDS011;6804;48.774;9.174;2024-03-07T10:02:58;21.77;;;17.70;;
13463;SDS011;6804;48.774;9.174;2024-03-07T10:05:31;24.07;;;18.80;;
13463;SDS011;6804;48.774;9.174;2024-03-07T10:07:59;24.77;;;18.17;;
13463;SDS011;6804;48.774;9.174;2024-03-07T10:10:26;24.53;;;17.73;;
13463;SDS011;6804;48.774;9.174;2024-03-07T10:12:58;24.43;;;18.40;;
13463;SDS011;6804;48.774;9.174;2024-03-07T10:15:29;24.03;;;18.10;;
13463;SDS011;6804;48.774;9.174;2024-03-07T10:17:57;27.17;;;18.97;;
13463;SDS011;6804;48.774;9.174;2024-03-07T10:20:26;25.37;;;19.23;;
13463;SDS011;6804;48.774;9.174;2024-03-07T10:22:57;23.53;;;17.77;;
13463;SDS011;6804;48.774;9.174;2024-03-07T10:25:26;23.63;;;17.70;;
13463;SDS011;6804;48.774;9.174;2024-03-07T10:28:01;26.73;;;18.30;;
13463;SDS011;6804;48.774;9.174;2024-03-07T10:30:34;25.03;;;16.97;;
13463;SDS011;6804;48.774;9.174;2024-03-07T10:33:10;23.37;;;17.00;;
13463;SDS011;6804;48.774;9.174;2024-03-07T10:35:39;23.33;;;17.63;;
13463;SDS011;6804;48.774;9.174;2024-03-07T10:38:07;22.50;;;16.80;;
13463;SDS011;6804;48.774;9.174;2024-03-07T10:40:40;22.73;;;17.17;;
13463;SDS011;6804;48.774;9.174;2024-03-07T10:45:58;23.27;;;18.17;;
13463;SDS011;6804;48.774;9.174;2024-03-07T10:48:32;24.50;;;18.47;;
13463;SDS011;6804;48.774;9.174;2024-03-07T10:51:13;24.87;;;18.20;;
13463;SDS011;6804;48.774;9.174;2024-03-07T10:53:52;24.30;;;19.33;;
13463;SDS011;6804;48.774;9.174;2024-03-07T10:56:33;23.93;;;18.77;;
13463;SDS011;6804;48.774;9.174;2024-03-07T10:59:16;30.93;;;19.13;;
13463;SDS011;6804;48.774;9.174;2024-03-07T11:01:48;26.70;;;18.47;;
13463;SDS011;6804;48.774;9.174;2024-03-07T11:04:22;24.37;;;18.60;;
13463;SDS011;6804;48.774;9.174;2024-03-07T11:06:52;26.37;;;18.60;;
13463;SDS011;6804;48.774;9.174;2024-03-07T11:09:21;25.37;;;18.10;;
13463;SDS011;6804;48.774;9.174;2024-03-07T11:11:52;25.43;;;18.43;;
13463;SDS011;6804;48.774;9.174;2024-03-07T11:14:22;27.13;;;18.90;;
13463;SDS011;6804;48.774;9.174;2024-03-07T11:16:51;25.00;;;20.10;;
13463;SDS011;6804;48.774;9.174;2024-03-07T11:19:24;24.93;;;20.03;;
13463;SDS011;6804;48.774;9.174;2024-03-07T11:22:04;28.50;;;19.60;;
13463;SDS011;6804;48.774;9.174;2024-03-07T11:24:41;35.57;;;25.90;;
13463;SDS011;6804;48.774;9.174;2024-03-07T11:27:12;29.53;;;20.20;;
13463;SDS011;6804;48.774;9.174;2024-03-07T11:29:51;28.27;;;19.30;;
13463;SDS011;6804;48.774;9.174;2024-03-07T11:32:20;26.00;;;19.67;;
13463;SDS011;6804;48.774;9.174;2024-03-07T11:34:48;26.00;;;18.83;;
13463;SDS011;6804;48.774;9.174;2024-03-07T11:37:17;25.67;;;19.03;;
13463;SDS011;6804;48.774;9.174;2024-03-07T11:39:49;28.67;;;18.87;;
13463;SDS011;6804;48.774;9.174;2024-03-07T11:42:26;27.33;;;18.33;;
13463;SDS011;6804;48.774;9.174;2024-03-07T11:45:03;30.63;;;21.60;;
13463;SDS011;6804;48.774;9.174;2024-03-07T11:47:35;28.47;;;19.77;;
13463;SDS011;6804;48.774;9.174;2024-03-07T11:50:08;27.87;;;19.67;;
13463;SDS011;6804;48.774;9.174;2024-03-07T11:52:38;28.03;;;19.73;;
13463;SDS011;6804;48.774;9.174;2024-03-07T11:55:11;28.00;;;19.60;;
13463;SDS011;6804;48.774;9.174;2024-03-07T11:57:40;28.43;;;19.83;;
13463;SDS011;6804;48.774;9.174;2024-03-07T12:00:12;25.40;;;18.77;;
13463;SDS011;6804;48.774;9.174;2024-03-07T12:02:43;27.23;;;20.13;;
13463;SDS011;6804;48.774;9.174;2024-03-07T12:05:11;27.50;;;19.93;;
13463;SDS011;6804;48.774;9.174;2024-03-07T12:07:43;30.03;;;19.80;;
13463;SDS011;6804;48.774;9.174;2024-03-07T12:10:13;26.50;;;21.10;;
13463;SDS011;6804;48.774;9.174;2024-03-07T12:12:45;27.57;;;19.00;;
13463;SDS011;6804;48.774;9.174;2024-03-07T12:15:13;33.60;;;22.07;;
13463;SDS011;6804;48.774;9.174;2024-03-07T12:17:45;28.07;;;19.07;;
13463;SDS011;6804;48.774;9.174;2024-03-07T12:20:15;28.60;;;18.83;;
13463;SDS011;6804;48.774;9.174;2024-03-07T12:22:55;26.17;;;19.53;;
13463;SDS011;6804;48.774;9.174;2024-03-07T12:25:26;28.13;;;20.10;;
13463;SDS011;6804;48.774;9.174;2024-03-07T12:28:04;26.67;;;19.23;;
13463;SDS011;6804;48.774;9.174;2024-03-07T12:30:37;27.83;;;20.90;;
13463;SDS011;6804;48.774;9.174;2024-03-07T12:33:18;30.60;;;19.83;;
13463;SDS011;6804;48.774;9.174;2024-03-07T12:35:53;27.30;;;19.07;;
13463;SDS011;6804;48.774;9.174;2024-03-07T12:38:33;27.83;;;19.83;;
13463;SDS011;6804;48.774;9.174;2024-03-07T12:41:02;26.30;;;20.10;;
13463;SDS011;6804;48.774;9.174;2024-03-07T12:43:41;26.33;;;21.10;;
13463;SDS011;6804;48.774;9.174;2024-03-07T12:49:00;29.53;;;21.07;;
13463;SDS011;6804;48.774;9.174;2024-03-07T12:51:28;28.10;;;20.43;;
13463;SDS011;6804;48.774;9.174;2024-03-07T12:53:56;27.37;;;21.03;;
13463;SDS011;6804;48.774;9.174;2024-03-07T12:56:24;25.77;;;20.57;;
13463;SDS011;6804;48.774;9.174;2024-03-07T12:58:54;30.47;;;21.63;;
13463;SDS011;6804;48.774;9.174;2024-03-07T13:01:26;30.13;;;21.37;;
13463;SDS011;6804;48.774;9.174;2024-03-07T13:03:56;27.27;;;19.57;;
13463;SDS011;6804;48.774;9.174;2024-03-07T13:06:24;28.33;;;21.87;;
13463;SDS011;6804;48.774;9.174;2024-03-07T13:08:55;28.17;;;20.00;;
13463;SDS011;6804;48.774;9.174;2024-03-07T13:11:23;23.97;;;18.87;;
13463;SDS011;6804;48.774;9.174;2024-03-07T13:13:56;26.93;;;21.07;;
13463;SDS011;6804;48.774;9.174;2024-03-07T13:16:26;29.90;;;21.23;;
13463;SDS011;6804;48.774;9.174;2024-03-07T13:18:53;28.33;;;21.93;;
13463;SDS011;6804;48.774;9.174;2024-03-07T13:21:28;25.10;;;20.53;;
13463;SDS011;6804;48.774;9.174;2024-03-07T13:26:56;29.20;;;21.13;;
13463;SDS011;6804;48.774;9.174;2024-03-07T13:29:26;26.13;;;20.20;;
13463;SDS011;6804;48.774;9.174;2024-03-07T13:31:55;24.53;;;18.13;;
13463;SDS011;6804;48.774;9.174;2024-03-07T13:34:26;23.57;;;19.17;;
13463;SDS011;6804;48.774;9.174;2024-03-07T13:36:54;27.17;;;19.27;;
13463;SDS011;6804;48.774;9.174;2024-03-07T13:39:23;25.67;;;21.20;;
13463;SDS011;6804;48.774;9.174;2024-03-07T13:41:54;25.90;;;20.67;;
13463;SDS011;6804;48.774;9.174;2024-03-07T13:44:26;24.20;;;19.63;;
13463;SDS011;6804;48.774;9.174;2024-03-07T13:46:56;24.77;;;17.70;;
13463;SDS011;6804;48.774;9.174;2024-03-07T13:52:16;29.30;;;21.77;;
13463;SDS011;6804;48.774;9.174;2024-03-07T13:57:40;23.27;;;18.30;;
13463;SDS011;6804;48.774;9.174;2024-03-07T14:00:19;27.33;;;21.73;;
13463;SDS011;6804;48.774;9.174;2024-03-07T14:03:21;25.50;;;20.47;;
13463;SDS011;6804;48.774;9.174;2024-03-07T14:06:18;33.90;;;24.90;;
13463;SDS011;6804;48.774;9.174;2024-03-07T14:12:19;26.90;;;20.03;;
13463;SDS011;6804;48.774;9.174;2024-03-07T14:18:18;25.47;;;19.77;;
13463;SDS011;6804;48.774;9.174;2024-03-07T14:21:40;30.20;;;20.70;;
13463;SDS011;6804;48.774;9.174;2024-03-07T14:27:32;27.33;;;21.70;;
13463;SDS011;6804;48.774;9.174;2024-03-07T14:33:06;26.00;;;20.23;;
13463;SDS011;6804;48.774;9.174;2024-03-07T14:35:39;24.30;;;20.00;;
13463;SDS011;6804;48.774;9.174;2024-03-07T14:38:28;26.07;;;20.33;;
13463;SDS011;6804;48.774;9.174;2024-03-07T14:41:09;28.80;;;22.00;;
13463;SDS011;6804;48.774;9.174;2024-03-07T14:43:40;27.60;;;20.77;;
13463;SDS011;6804;48.774;9.174;2024-03-07T14:46:08;27.03;;;22.00;;
13463;SDS011;6804;48.774;9.174;2024-03-07T14:48:39;25.30;;;20.90;;
13463;SDS011;6804;48.774;9.174;2024-03-07T14:51:11;24.80;;;20.43;;
13463;SDS011;6804;48.774;9.174;2024-03-07T14:53:44;29.87;;;20.70;;
13463;SDS011;6804;48.774;9.174;2024-03-07T14:56:14;29.30;;;20.83;;
13463;SDS011;6804;48.774;9.174;2024-03-07T14:58:46;27.57;;;20.37;;
13463;SDS011;6804;48.774;9.174;2024-03-07T15:01:14;28.17;;;20.93;;
13463;SDS011;6804;48.774;9.174;2024-03-07T15:03:43;26.77;;;20.23;;
13463;SDS011;6804;48.774;9.174;2024-03-07T15:06:18;27.00;;;20.93;;
13463;SDS011;6804;48.774;9.174;2024-03-07T15:08:49;28.03;;;21.57;;
13463;SDS011;6804;48.774;9.174;2024-03-07T15:11:18;25.73;;;19.17;;
13463;SDS011;6804;48.774;9.174;2024-03-07T15:13:53;28.40;;;20.90;;
13463;SDS011;6804;48.774;9.174;2024-03-07T15:16:21;26.50;;;21.07;;
13463;SDS011;6804;48.774;9.174;2024-03-07T15:18:50;28.47;;;22.07;;
13463;SDS011;6804;48.774;9.174;2024-03-07T15:21:18;26.67;;;20.43;;
13463;SDS011;6804;48.774;9.174;2024-03-07T15:23:47;27.10;;;19.37;;
13463;SDS011;6804;48.774;9.174;2024-03-07T15:26:19;29.07;;;21.47;;
13463;SDS011;6804;48.774;9.174;2024-03-07T15:28:51;29.67;;;22.20;;
13463;SDS011;6804;48.774;9.174;2024-03-07T15:31:19;29.10;;;22.03;;
13463;SDS011;6804;48.774;9.174;2024-03-07T15:33:47;26.03;;;19.00;;
13463;SDS011;6804;48.774;9.174;2024-03-07T15:36:19;25.23;;;20.13;;
13463;SDS011;6804;48.774;9.174;2024-03-07T15:38:48;24.40;;;19.30;;
13463;SDS011;6804;48.774;9.174;2024-03-07T15:41:17;24.93;;;19.50;;
13463;SDS011;6804;48.774;9.174;2024-03-07T15:43:47;24.20;;;18.33;;
13463;SDS011;6804;48.774;9.174;2024-03-07T15:46:17;25.80;;;19.07;;
13463;SDS011;6804;48.774;9.174;2024-03-07T15:51:40;23.77;;;18.77;;
13463;SDS011;6804;48.774;9.174;2024-03-07T15:54:10;27.67;;;18.60;;
13463;SDS011;6804;48.774;9.174;2024-03-07T15:56:43;24.80;;;19.20;;
13463;SDS011;6804;48.774;9.174;2024-03-07T15:59:14;24.73;;;19.00;;
13463;SDS011;6804;48.774;9.174;2024-03-07T16:01:45;26.00;;;18.87;;
13463;SDS011;6804;48.774;9.174;2024-03-07T16:04:14;24.90;;;18.07;;
13463;SDS011;6804;48.774;9.174;2024-03-07T16:06:49;26.43;;;19.47;;